Time;durP1;ratioP1;P1;durP2;ratioP2;P2;SDS_P1;SDS_P2;PMS_P1;PMS_P2;Temp;Humidity;BMP_temperature;BMP_pressure;BME280_temperature;BME280_humidity;BME280_pressure;Samples;Min_cycle;Max_cycle;Signal;HPM_P1;HPM_P2
2021/07/01 00:01:04;;;;;;;1.00;0.93;;;14.80;74.30;;;17.43;62.78;101272.94;5109142;27;97039;-75
2021/07/01 00:03:46;;;;;;;0.60;0.22;;;14.90;74.30;;;17.50;61.98;101263.16;5107835;27;96743;-74
2021/07/01 00:06:27;;;;;;;2.70;1.27;;;14.80;74.30;;;17.50;61.96;101263.16;5064915;27;96678;-75
2021/07/01 00:09:14;;;;;;;1.08;0.98;;;14.90;74.40;;;17.53;62.47;101261.66;5038574;27;96605;-75
2021/07/01 00:11:56;;;;;;;1.70;1.23;;;14.90;74.40;;;17.54;62.72;101257.84;5074948;27;96820;-75
2021/07/01 00:14:38;;;;;;;1.95;1.13;;;14.80;74.30;;;17.58;61.86;101251.41;5068251;27;96863;-74
2021/07/01 00:17:19;;;;;;;0.15;0.15;;;14.80;74.30;;;17.60;62.17;101254.59;5057103;27;97195;-74
2021/07/01 00:20:04;;;;;;;0.47;0.47;;;14.90;74.30;;;17.62;62.01;101251.56;5051579;27;96829;-75
2021/07/01 00:22:46;;;;;;;0.05;0.05;;;14.80;74.40;;;17.63;62.03;101243.06;5043835;27;96804;-75
2021/07/01 00:25:27;;;;;;;0.15;0.10;;;14.90;74.30;;;17.68;62.22;101252.91;5055685;27;96805;-75
2021/07/01 00:28:08;;;;;;;0.68;0.68;;;14.80;74.30;;;17.63;62.07;101248.50;5033217;27;99587;-75
2021/07/01 00:30:49;;;;;;;0.10;0.10;;;14.80;74.40;;;17.57;61.76;101254.47;5089450;27;97490;-74
2021/07/01 00:33:33;;;;;;;0.10;0.10;;;14.80;74.30;;;17.52;62.60;101255.47;5061578;27;97012;-74
2021/07/01 00:36:15;;;;;;;1.70;0.63;;;14.80;74.30;;;17.61;62.53;101250.75;5109931;27;97133;-74
2021/07/01 00:38:57;;;;;;;0.32;0.32;;;14.80;74.40;;;17.61;61.83;101263.53;5125225;27;96510;-75
2021/07/01 00:41:38;;;;;;;0.10;0.10;;;14.80;74.40;;;17.65;61.76;101257.06;5068437;27;96691;-75
2021/07/01 00:44:20;;;;;;;0.45;0.20;;;14.80;74.40;;;17.68;62.18;101267.25;5064348;27;96659;-75
2021/07/01 00:47:01;;;;;;;0.20;0.17;;;14.80;74.30;;;17.63;62.19;101275.59;5093942;27;96598;-76
2021/07/01 00:49:44;;;;;;;0.32;0.32;;;14.90;74.40;;;17.63;61.38;101270.19;5069589;27;96596;-74
2021/07/01 00:52:25;;;;;;;0.20;0.20;;;14.80;74.30;;;17.60;62.37;101273.56;5051142;27;96756;-75
2021/07/01 00:55:10;;;;;;;1.95;1.25;;;14.90;74.40;;;17.60;62.37;101270.84;5053958;27;96756;-75
2021/07/01 00:57:53;;;;;;;1.00;0.40;;;14.80;74.30;;;17.56;61.75;101267.22;5045784;27;97263;-74
2021/07/01 01:00:45;;;;;;;0.52;0.52;;;14.80;74.90;;;17.60;61.61;101276.25;5069659;27;96702;-74
2021/07/01 01:03:27;;;;;;;0.77;0.63;;;14.80;74.40;;;17.56;62.49;101274.53;5055030;27;97188;-75
2021/07/01 01:06:09;;;;;;;0.95;0.90;;;14.80;74.40;;;17.53;62.28;101283.34;5049977;27;96498;-74
2021/07/01 01:08:58;;;;;;;0.47;0.47;;;14.80;74.40;;;17.51;62.50;101283.69;5070859;27;96606;-75
2021/07/01 01:11:40;;;;;;;1.52;0.88;;;14.80;74.40;;;17.55;62.22;101283.81;5066938;27;96654;-75
2021/07/01 01:14:28;;;;;;;0.25;0.17;;;14.80;74.50;;;17.54;62.27;101277.63;5053651;27;96618;-74
2021/07/01 01:17:16;;;;;;;0.38;0.30;;;14.80;74.50;;;17.51;62.46;101275.56;5107672;27;96655;-75
2021/07/01 01:19:58;;;;;;;0.57;0.45;;;14.80;74.50;;;17.50;62.27;101268.56;5107342;27;96639;-75
2021/07/01 01:22:40;;;;;;;0.28;0.28;;;14.80;74.50;;;17.59;62.01;101269.25;5104972;27;97084;-75
2021/07/01 01:25:23;;;;;;;0.03;0.03;;;14.80;74.40;;;17.56;62.36;101269.94;5056668;27;96797;-75
2021/07/01 01:28:07;;;;;;;1.98;0.73;;;14.80;74.40;;;17.53;62.16;101262.47;5058426;27;96752;-75
2021/07/01 01:30:49;;;;;;;0.32;0.32;;;14.80;74.40;;;17.50;62.08;101268.56;5063130;27;96549;-75
2021/07/01 01:33:33;;;;;;;3.45;0.63;;;14.80;74.40;;;17.49;61.53;101268.88;5088030;27;96573;-75
2021/07/01 01:36:18;;;;;;;0.45;0.32;;;14.80;74.50;;;17.51;62.08;101270.16;5055252;27;97961;-74
2021/07/01 01:39:03;;;;;;;0.43;0.40;;;14.80;74.50;;;17.51;61.89;101263.94;5066095;27;96879;-74
2021/07/01 01:41:57;;;;;;;4.60;0.88;;;14.70;74.50;;;17.50;62.13;101260.44;5125188;27;96558;-75
2021/07/01 01:44:40;;;;;;;0.80;0.63;;;14.70;74.50;;;17.53;62.25;101259.78;5098139;27;96586;-75
2021/07/01 01:47:22;;;;;;;11.68;1.85;;;14.70;74.40;;;17.50;62.60;101260.44;5068736;27;96869;-76
2021/07/01 01:50:08;;;;;;;0.50;0.50;;;14.80;74.50;;;17.44;61.87;101261.78;5030160;27;97154;-75
2021/07/01 01:53:08;;;;;;;0.10;0.10;;;14.70;74.50;;;17.41;61.97;101269.78;5031899;27;96656;-74
2021/07/01 01:55:51;;;;;;;3.03;1.35;;;14.70;74.50;;;17.43;62.15;101264.81;5049886;27;96908;-74
2021/07/01 01:58:35;;;;;;;0.38;0.38;;;14.70;74.50;;;17.44;62.58;101269.91;5045844;27;96633;-74
2021/07/01 02:01:39;;;;;;;4.78;1.48;;;14.70;74.50;;;17.42;61.77;101269.47;5037326;27;96697;-75
2021/07/01 02:04:36;;;;;;;1.33;1.23;;;14.70;74.50;;;17.40;62.58;101266.25;5072802;27;96975;-75
2021/07/01 02:07:18;;;;;;;1.80;1.65;;;14.70;74.60;;;17.35;61.96;101263.78;5065411;27;97326;-75
2021/07/01 02:10:24;;;;;;;7.15;1.42;;;14.70;74.50;;;17.37;61.96;101269.63;5063107;27;96782;-75
2021/07/01 02:13:10;;;;;;;0.05;0.05;;;14.70;74.60;;;17.42;62.37;101274.88;5026349;28;97351;-75
2021/07/01 02:16:10;;;;;;;0.52;0.52;;;14.60;74.60;;;17.45;62.27;101270.69;5046765;27;96777;-75
2021/07/01 02:18:51;;;;;;;3.53;1.98;;;14.70;74.70;;;17.42;62.30;101277.59;5062216;27;96960;-75
2021/07/01 02:21:34;;;;;;;1.55;0.52;;;14.70;74.70;;;17.37;62.09;101271.56;5065871;27;96922;-74
2021/07/01 02:24:28;;;;;;;0.15;0.15;;;14.70;74.60;;;17.37;62.79;101269.63;5094508;27;96626;-76
2021/07/01 02:27:11;;;;;;;0.45;0.43;;;14.70;74.60;;;17.37;61.97;101266.94;5067541;27;96807;-75
2021/07/01 02:29:53;;;;;;;0.10;0.10;;;14.60;74.60;;;17.29;62.67;101270.50;5086975;27;96666;-75
2021/07/01 02:32:45;;;;;;;9.15;0.73;;;14.60;74.60;;;17.25;62.19;101273.41;5057527;27;96825;-75
2021/07/01 02:35:44;;;;;;;0.57;0.45;;;14.60;74.60;;;17.28;62.84;101268.91;5068137;27;96689;-75
2021/07/01 02:38:43;;;;;;;3.08;1.20;;;14.60;74.60;;;17.26;62.07;101264.94;5037614;27;96816;-75
2021/07/01 02:41:32;;;;;;;0.13;0.13;;;14.60;74.60;;;17.33;61.96;101259.81;5067549;27;97128;-74
2021/07/01 02:44:13;;;;;;;2.30;0.68;;;14.60;74.70;;;17.28;62.88;101266.19;5077332;27;98110;-74
2021/07/01 02:47:14;;;;;;;2.35;1.48;;;14.60;74.60;;;17.32;62.12;101261.69;5057379;27;96685;-74
2021/07/01 02:49:55;;;;;;;0.30;0.30;;;14.60;74.60;;;17.33;61.99;101263.31;5055176;27;96782;-75
2021/07/01 02:52:45;;;;;;;1.67;0.57;;;14.60;74.60;;;17.35;62.83;101263.00;5068175;27;97847;-75
2021/07/01 02:55:27;;;;;;;2.50;0.73;;;14.60;74.60;;;17.35;62.96;101263.78;5142991;27;96759;-75
2021/07/01 02:58:08;;;;;;;8.77;2.13;;;14.60;74.60;;;17.32;62.73;101267.13;5121090;27;97158;-75
2021/07/01 03:01:08;;;;;;;1.75;0.47;;;14.60;74.60;;;17.32;62.04;101269.81;5047647;27;96837;-74
2021/07/01 03:03:53;;;;;;;8.20;3.25;;;14.60;74.60;;;17.32;62.01;101269.81;5118306;27;96651;-75
2021/07/01 03:06:34;;;;;;;0.00;0.00;;;14.60;74.70;;;17.34;62.51;101267.59;5103990;27;96589;-74
2021/07/01 03:09:16;;;;;;;0.38;0.38;;;14.60;74.70;;;17.34;62.81;101264.91;5068513;27;96557;-75
2021/07/01 03:11:57;;;;;;;0.00;0.00;;;14.60;74.70;;;17.36;62.54;101254.50;5054290;27;96658;-74
2021/07/01 03:14:38;;;;;;;0.50;0.50;;;14.60;74.60;;;17.38;62.30;101260.38;5091552;27;98093;-75
2021/07/01 03:17:21;;;;;;;0.28;0.28;;;14.60;74.70;;;17.25;62.10;101262.56;5067660;27;96635;-75
2021/07/01 03:20:04;;;;;;;0.22;0.22;;;14.60;74.60;;;17.24;62.28;101261.00;5052052;27;96704;-75
2021/07/01 03:23:36;;;;;;;0.52;0.52;;;14.60;74.60;;;17.26;61.97;101254.09;5106328;27;96830;-74
2021/07/01 03:26:19;;;;;;;5.07;0.50;;;14.60;74.70;;;17.28;62.61;101265.44;5060246;27;96718;-75
2021/07/01 03:29:01;;;;;;;0.60;0.55;;;14.60;74.70;;;17.24;61.99;101263.69;5039395;27;97628;-75
2021/07/01 03:31:44;;;;;;;0.28;0.28;;;14.60;74.80;;;17.22;62.97;101260.53;5110633;27;96633;-74
2021/07/01 03:34:25;;;;;;;1.33;0.63;;;14.50;74.70;;;17.22;62.79;101253.19;5125037;27;96619;-74
2021/07/01 03:37:06;;;;;;;5.28;0.90;;;14.60;74.80;;;17.27;61.94;101257.63;5059763;27;97157;-74
2021/07/01 03:40:11;;;;;;;5.82;2.38;;;14.50;74.70;;;17.22;62.23;101247.78;5132602;27;96751;-74
2021/07/01 03:42:58;;;;;;;0.22;0.15;;;14.50;74.70;;;17.26;62.98;101253.31;5046791;27;97177;-74
2021/07/01 03:45:40;;;;;;;0.10;0.10;;;14.50;74.80;;;17.31;61.99;101245.78;5035732;27;96626;-74
2021/07/01 03:48:22;;;;;;;0.75;0.50;;;14.50;74.80;;;17.32;62.15;101259.00;5047830;27;96652;-74
2021/07/01 03:51:22;;;;;;;4.03;0.65;;;14.50;74.80;;;17.32;62.31;101248.16;5068893;27;96877;-74
2021/07/01 03:54:21;;;;;;;0.25;0.25;;;14.50;74.80;;;17.33;62.35;101244.34;5130935;27;96725;-74
2021/07/01 03:57:03;;;;;;;3.47;2.67;;;14.50;74.70;;;17.35;61.92;101246.75;5106780;27;96820;-74
2021/07/01 03:59:59;;;;;;;0.22;0.20;;;14.60;74.80;;;17.33;62.21;101247.06;5037563;27;96703;-74
2021/07/01 04:02:59;;;;;;;0.70;0.45;;;14.60;74.70;;;17.42;61.87;101253.19;5068722;27;97254;-74
2021/07/01 04:05:52;;;;;;;6.93;2.58;;;14.60;74.80;;;17.46;62.05;101254.13;5066036;27;96778;-74
2021/07/01 04:08:36;;;;;;;3.13;0.93;;;14.60;74.80;;;17.42;62.10;101250.50;5046175;27;96870;-74
2021/07/01 04:11:17;;;;;;;0.15;0.15;;;14.60;74.70;;;17.50;61.39;101249.59;5108965;27;96711;-74
2021/07/01 04:13:58;;;;;;;2.40;1.25;;;14.60;74.70;;;17.53;61.40;101248.13;5069867;27;96830;-74
2021/07/01 04:17:12;;;;;;;0.22;0.22;;;14.60;74.70;;;17.53;61.75;101251.63;5032462;27;96657;-74
2021/07/01 04:20:16;;;;;;;0.88;0.80;;;14.70;74.70;;;17.53;61.68;101251.63;5098944;27;96648;-74
2021/07/01 04:23:14;;;;;;;9.70;1.70;;;14.70;74.70;;;17.64;61.47;101244.66;5118385;27;96706;-74
2021/07/01 04:26:36;;;;;;;11.30;3.20;;;14.70;74.60;;;17.58;61.75;101245.22;5089881;27;96790;-74
2021/07/01 04:29:33;;;;;;;0.57;0.57;;;14.70;74.80;;;17.45;62.37;101260.66;5067030;27;96354;-74
2021/07/01 04:32:15;;;;;;;0.28;0.28;;;14.70;74.90;;;17.40;62.76;101263.56;5041939;27;97250;-74
2021/07/01 04:35:10;;;;;;;0.60;0.60;;;14.70;74.80;;;17.38;62.52;101268.50;5105300;27;96676;-74
2021/07/01 04:37:51;;;;;;;3.30;1.45;;;14.70;74.80;;;17.43;62.48;101265.63;5091368;27;96705;-74
2021/07/01 04:40:46;;;;;;;0.65;0.65;;;14.70;74.90;;;17.48;62.37;101256.47;5086622;27;96521;-74
2021/07/01 04:43:27;;;;;;;1.35;1.25;;;14.70;74.90;;;17.52;62.17;101260.91;5044554;27;97071;-74
2021/07/01 04:46:09;;;;;;;14.10;1.27;;;14.70;74.90;;;17.65;61.76;101265.22;5069763;27;96684;-74
2021/07/01 04:48:52;;;;;;;0.75;0.50;;;14.80;74.90;;;17.68;61.98;101253.69;5055308;27;96864;-75
2021/07/01 04:51:35;;;;;;;0.20;0.20;;;14.80;74.80;;;17.67;62.35;101254.81;5071564;27;97545;-74
2021/07/01 04:54:55;;;;;;;4.95;1.08;;;14.80;74.70;;;17.56;62.60;101261.00;5089334;27;96664;-75
2021/07/01 04:58:11;;;;;;;0.05;0.05;;;14.80;74.60;;;17.47;62.88;101266.53;5037086;27;96803;-74
2021/07/01 05:00:57;;;;;;;0.30;0.30;;;14.80;74.70;;;17.51;62.07;101264.72;5067717;27;96740;-75
2021/07/01 05:04:14;;;;;;;0.77;0.55;;;14.80;74.70;;;17.45;62.93;101271.50;5046832;27;96884;-75
2021/07/01 05:07:00;;;;;;;0.17;0.17;;;14.80;75.30;;;17.39;62.03;101264.69;5045762;27;96708;-75
2021/07/01 05:09:46;;;;;;;0.40;0.40;;;14.80;74.70;;;17.36;62.83;101270.75;5037661;27;96649;-76
2021/07/01 05:12:47;;;;;;;0.35;0.35;;;14.80;74.60;;;17.45;62.32;101260.66;5044591;27;96634;-75
2021/07/01 05:15:33;;;;;;;2.17;1.13;;;14.80;74.70;;;17.55;62.47;101265.66;5088681;27;96727;-75
2021/07/01 05:18:18;;;;;;;0.88;0.38;;;14.80;74.60;;;17.61;61.60;101260.81;5044180;27;96716;-75
2021/07/01 05:21:18;;;;;;;1.58;0.75;;;14.90;74.70;;;17.58;62.33;101256.84;5063082;27;96766;-75
2021/07/01 05:24:17;;;;;;;1.10;1.00;;;14.90;74.60;;;17.58;62.67;101259.56;5069465;27;96679;-75
2021/07/01 05:27:37;;;;;;;0.05;0.05;;;14.90;74.60;;;17.68;62.00;101261.03;5068075;27;96678;-76
2021/07/01 05:30:57;;;;;;;0.32;0.32;;;14.90;74.60;;;17.61;62.46;101261.59;5117933;27;97508;-76
2021/07/01 05:33:59;;;;;;;1.73;1.63;;;15.00;74.50;;;17.60;62.12;101260.00;5067737;27;97471;-75
2021/07/01 05:36:44;;;;;;;0.70;0.20;;;14.90;75.10;;;17.63;62.15;101259.34;5092220;27;96770;-75
2021/07/01 05:39:28;;;;;;;1.13;1.02;;;14.90;74.50;;;17.69;61.83;101257.22;5037440;27;96600;-75
2021/07/01 05:42:11;;;;;;;0.30;0.30;;;14.90;74.50;;;17.64;62.28;101247.38;5108152;27;96659;-75
2021/07/01 05:44:53;;;;;;;2.17;1.38;;;15.00;74.50;;;17.70;62.28;101256.06;5032912;27;96728;-74
2021/07/01 05:47:36;;;;;;;1.20;0.82;;;15.00;74.60;;;17.65;63.64;101250.88;5054770;27;97395;-74
2021/07/01 05:50:20;;;;;;;0.40;0.40;;;14.90;74.70;;;17.55;64.60;101252.09;5091936;27;96686;-74
2021/07/01 05:53:05;;;;;;;1.15;0.38;;;14.90;75.30;;;17.62;65.38;101260.47;5069980;27;97033;-74
2021/07/01 05:55:47;;;;;;;0.38;0.38;;;14.90;76.20;;;17.64;66.76;101249.31;5054656;27;96674;-74
2021/07/01 05:58:28;;;;;;;0.10;0.10;;;14.90;77.00;;;17.72;67.37;101261.94;5064041;27;97359;-75
2021/07/01 06:01:11;;;;;;;0.20;0.20;;;14.90;77.60;;;17.83;67.81;101255.75;5070073;27;96761;-75
2021/07/01 06:03:52;;;;;;;2.40;0.80;;;14.90;78.70;;;17.87;68.46;101255.91;5064731;27;97043;-74
2021/07/01 06:06:55;;;;;;;0.85;0.70;;;15.00;78.60;;;17.94;68.60;101256.91;5109687;27;97162;-74
2021/07/01 06:09:43;;;;;;;0.20;0.20;;;15.00;79.00;;;18.00;68.35;101262.91;5105298;27;96988;-73
2021/07/01 06:12:25;;;;;;;0.20;0.20;;;15.00;79.30;;;18.09;69.25;101258.16;5089442;27;97505;-74
2021/07/01 06:15:10;;;;;;;0.88;0.88;;;15.10;79.60;;;18.01;69.46;101251.69;5026605;27;97398;-74
2021/07/01 06:17:51;;;;;;;0.32;0.32;;;15.10;80.00;;;18.02;69.83;101256.03;5043631;27;97097;-74
2021/07/01 06:20:33;;;;;;;0.38;0.38;;;15.10;80.30;;;18.01;69.73;101259.84;5046582;27;97177;-74
2021/07/01 06:23:15;;;;;;;1.65;0.52;;;15.10;80.60;;;17.92;70.49;101261.88;5062889;27;97112;-74
2021/07/01 06:25:57;;;;;;;0.57;0.43;;;15.10;80.90;;;17.89;70.82;101265.25;5106840;27;96974;-73
2021/07/01 06:28:40;;;;;;;0.63;0.20;;;15.20;81.30;;;17.92;71.53;101267.28;5046747;27;96588;-73
2021/07/01 06:31:37;;;;;;;2.28;1.45;;;15.20;81.60;;;17.96;71.63;101267.41;5106091;27;97090;-83
2021/07/01 06:34:21;;;;;;;0.80;0.57;;;15.20;81.90;;;17.99;72.25;101259.38;5109861;27;98731;-73
2021/07/01 06:37:06;;;;;;;1.60;0.77;;;15.20;82.10;;;18.00;72.73;101274.53;5088027;27;97226;-73
2021/07/01 06:40:12;;;;;;;0.73;0.22;;;15.20;82.40;;;18.01;72.41;101264.47;5046307;27;97535;-73
2021/07/01 06:43:15;;;;;;;0.47;0.47;;;15.20;82.60;;;18.07;72.00;101269.34;5079349;27;97396;-73
2021/07/01 06:46:31;;;;;;;0.47;0.43;;;15.30;82.90;;;18.22;72.24;101265.94;5065777;27;97013;-73
2021/07/01 06:49:32;;;;;;;0.28;0.28;;;15.30;82.90;;;18.31;72.20;101271.31;5064450;27;97127;-74
2021/07/01 06:52:52;;;;;;;1.35;1.17;;;15.40;83.10;;;18.17;72.63;101271.59;5111017;27;97861;-73
2021/07/01 06:55:56;;;;;;;0.38;0.30;;;15.40;83.20;;;18.19;72.36;101269.34;5124121;27;96939;-73
2021/07/01 06:58:46;;;;;;;0.52;0.52;;;15.40;83.30;;;18.26;72.36;101266.88;5078319;27;96847;-73
2021/07/01 07:01:30;;;;;;;0.10;0.10;;;15.40;83.50;;;18.29;73.05;101271.63;5078955;27;97019;-73
2021/07/01 07:04:32;;;;;;;0.05;0.05;;;15.40;83.70;;;18.34;73.06;101271.44;5050923;27;97278;-73
2021/07/01 07:07:13;;;;;;;0.38;0.38;;;15.40;83.70;;;18.42;72.96;101275.94;5108585;27;97187;-72
2021/07/01 07:09:55;;;;;;;1.70;0.68;;;15.50;83.90;;;18.47;73.41;101274.91;5047595;27;96785;-72
2021/07/01 07:12:41;;;;;;;0.63;0.60;;;15.50;84.00;;;18.53;73.55;101277.03;5092509;27;96831;-73
2021/07/01 07:15:27;;;;;;;0.43;0.43;;;15.60;84.30;;;18.56;73.70;101281.78;5069258;27;101450;-73
2021/07/01 07:18:18;;;;;;;0.20;0.20;;;15.60;84.40;;;18.62;73.51;101277.72;5110180;27;96968;-73
2021/07/01 07:21:11;;;;;;;0.30;0.30;;;15.60;84.60;;;18.62;73.96;101269.59;5067070;27;97415;-73
2021/07/01 07:23:56;;;;;;;0.30;0.20;;;15.60;84.90;;;18.59;74.60;101277.59;5104723;27;96614;-73
2021/07/01 07:26:38;;;;;;;0.30;0.30;;;15.70;85.10;;;18.53;74.65;101282.47;5068146;27;96806;-74
2021/07/01 07:29:43;;;;;;;0.60;0.47;;;15.70;85.30;;;18.58;74.85;101279.53;5066481;27;97196;-74
2021/07/01 07:32:30;;;;;;;1.10;0.45;;;15.70;85.50;;;18.76;74.52;101278.16;5080000;27;96869;-74
2021/07/01 07:35:15;;;;;;;0.00;0.00;;;15.80;85.50;;;18.73;74.75;101278.81;5060937;27;96681;-73
2021/07/01 07:37:58;;;;;;;0.30;0.30;;;15.80;85.70;;;18.76;74.69;101285.47;5052622;27;96825;-73
2021/07/01 07:40:41;;;;;;;0.13;0.13;;;15.80;86.00;;;18.59;75.44;101283.03;5068729;27;96812;-73
2021/07/01 07:43:25;;;;;;;0.20;0.20;;;15.70;86.10;;;18.50;75.50;101283.16;5058956;27;96988;-74
2021/07/01 07:46:07;;;;;;;0.38;0.32;;;15.70;86.40;;;18.55;75.38;101285.63;5074433;27;97102;-73
2021/07/01 07:48:49;;;;;;;0.35;0.35;;;15.70;86.60;;;18.47;76.20;101277.63;5109256;27;96622;-74
2021/07/01 07:51:33;;;;;;;0.10;0.10;;;15.70;86.80;;;18.51;75.91;101282.03;5056105;27;96790;-73
2021/07/01 07:54:25;;;;;;;0.38;0.38;;;15.70;86.90;;;18.40;76.68;101277.38;5108504;27;96881;-74
2021/07/01 07:57:08;;;;;;;0.95;0.93;;;15.70;87.20;;;18.44;76.66;101281.00;5057979;27;96575;-73
2021/07/01 07:59:51;;;;;;;0.45;0.40;;;15.70;87.30;;;18.49;76.80;101281.56;5075750;27;96760;-73
2021/07/01 08:02:47;;;;;;;0.22;0.22;;;15.70;87.50;;;18.64;76.31;101283.59;5030459;27;97092;-74
2021/07/01 08:05:31;;;;;;;1.05;0.95;;;15.70;87.60;;;18.78;76.17;101270.44;5053905;27;97254;-74
2021/07/01 08:08:16;;;;;;;2.72;1.15;;;15.80;87.70;;;18.67;76.72;101272.06;5064864;27;97432;-74
2021/07/01 08:10:59;;;;;;;0.43;0.43;;;15.70;87.80;;;18.71;76.22;101278.38;5057411;27;96762;-74
2021/07/01 08:13:43;;;;;;;0.63;0.63;;;15.80;88.00;;;18.75;76.08;101275.75;5047466;27;96815;-74
2021/07/01 08:16:25;;;;;;;8.18;2.05;;;15.80;88.00;;;18.66;76.59;101278.63;5052415;27;97073;-74
2021/07/01 08:19:07;;;;;;;0.52;0.20;;;15.80;88.10;;;18.72;76.78;101277.25;5064001;27;96679;-74
2021/07/01 08:21:48;;;;;;;0.00;0.00;;;15.80;88.20;;;18.77;76.66;101279.72;5043122;27;99091;-74
2021/07/01 08:24:30;;;;;;;1.75;0.88;;;15.80;88.40;;;18.78;76.53;101281.31;5071746;27;97477;-74
2021/07/01 08:27:12;;;;;;;0.20;0.20;;;15.80;88.40;;;18.72;77.11;101279.16;5046354;27;96870;-73
2021/07/01 08:29:54;;;;;;;0.45;0.38;;;15.80;88.60;;;18.67;77.12;101277.50;5064175;27;96635;-74
2021/07/01 08:32:38;;;;;;;0.55;0.55;;;15.80;88.80;;;18.62;77.55;101274.22;5098436;27;97451;-73
2021/07/01 08:35:25;;;;;;;0.55;0.55;;;15.80;88.90;;;18.67;77.53;101277.50;5065935;27;97578;-75
2021/07/01 08:38:09;;;;;;;0.50;0.50;;;15.80;89.10;;;18.60;77.67;101279.97;5052909;27;99393;-74
2021/07/01 08:40:51;;;;;;;0.57;0.57;;;15.80;89.20;;;18.70;77.22;101276.81;5049971;27;99522;-73
2021/07/01 08:43:52;;;;;;;0.10;0.10;;;15.80;89.30;;;18.76;77.55;101280.06;5047938;27;97134;-74
2021/07/01 08:46:48;;;;;;;2.40;2.20;;;15.90;89.40;;;18.79;77.42;101282.13;5068938;27;97948;-74
2021/07/01 08:49:43;;;;;;;1.75;1.15;;;15.80;89.40;;;18.77;77.81;101282.44;5065994;27;96650;-73
2021/07/01 08:52:29;;;;;;;0.88;0.82;;;15.80;89.40;;;18.85;77.31;101289.66;5028457;27;96788;-74
2021/07/01 08:55:24;;;;;;;4.53;0.90;;;15.90;89.70;;;18.83;77.54;101294.63;5057965;27;96887;-74
2021/07/01 08:58:11;;;;;;;0.75;0.45;;;15.90;89.80;;;18.80;77.40;101297.25;5105953;27;96601;-74
2021/07/01 09:00:55;;;;;;;2.13;1.48;;;15.80;89.70;;;18.81;77.25;101299.63;5091859;27;96523;-75
2021/07/01 09:03:45;;;;;;;1.20;0.75;;;15.90;89.80;;;18.86;77.33;101299.38;5059267;27;96562;-72
2021/07/01 09:06:30;;;;;;;0.15;0.15;;;15.90;89.90;;;18.84;77.36;101303.59;5057297;27;97317;-72
2021/07/01 09:09:12;;;;;;;1.20;0.65;;;15.90;90.00;;;18.83;77.37;101302.78;5114398;27;97464;-72
2021/07/01 09:11:54;;;;;;;0.20;0.20;;;15.90;90.00;;;18.82;77.67;101306.63;5066196;27;96911;-72
2021/07/01 09:14:37;;;;;;;0.65;0.43;;;15.90;90.00;;;18.90;77.60;101303.00;5026480;28;97367;-72
2021/07/01 09:17:20;;;;;;;1.92;1.75;;;15.90;90.00;;;18.97;77.09;101303.22;5036586;27;96832;-72
2021/07/01 09:20:09;;;;;;;1.38;0.75;;;15.90;90.00;;;18.89;77.43;101309.56;5106955;27;97117;-72
2021/07/01 09:22:57;;;;;;;1.08;0.47;;;16.00;90.10;;;18.94;77.53;101314.78;5068445;27;96632;-73
2021/07/01 09:25:43;;;;;;;1.25;1.15;;;15.90;90.10;;;18.98;77.55;101319.16;5089015;27;96580;-73
2021/07/01 09:28:25;;;;;;;3.85;0.52;;;16.00;90.10;;;19.13;77.34;101313.03;5057089;27;96705;-73
2021/07/01 09:31:07;;;;;;;1.42;1.23;;;16.10;90.00;;;19.27;77.05;101312.66;5041698;27;96857;-72
2021/07/01 09:33:52;;;;;;;2.50;1.17;;;16.10;90.00;;;19.47;76.64;101319.81;5063560;27;96696;-72
2021/07/01 09:36:36;;;;;;;1.67;1.60;;;16.20;89.80;;;19.41;76.63;101318.50;5104733;27;96956;-72
2021/07/01 09:39:21;;;;;;;0.20;0.20;;;16.30;89.90;;;19.31;77.02;101319.00;5064897;27;96633;-72
2021/07/01 09:42:06;;;;;;;8.55;2.53;;;16.30;90.00;;;19.27;77.27;101324.31;5045925;27;97648;-72
2021/07/01 09:44:48;;;;;;;0.55;0.55;;;16.30;90.10;;;19.23;77.91;101326.13;5089973;27;96997;-72
2021/07/01 09:47:31;;;;;;;2.97;2.03;;;16.30;90.10;;;19.18;77.79;101326.38;5062054;27;96932;-72
2021/07/01 09:50:14;;;;;;;3.97;1.88;;;16.30;90.20;;;19.12;78.20;101318.78;5083443;27;96817;-72
2021/07/01 09:52:57;;;;;;;2.63;2.30;;;16.20;90.20;;;19.18;77.94;101322.88;5049615;27;96898;-72
2021/07/01 09:55:41;;;;;;;1.92;1.25;;;16.20;90.30;;;19.22;77.86;101323.78;5103272;27;100222;-72
2021/07/01 09:58:31;;;;;;;3.75;2.45;;;16.30;90.30;;;19.20;77.67;101318.69;5062834;27;97219;-72
2021/07/01 10:01:25;;;;;;;1.55;0.68;;;16.30;90.30;;;19.21;78.13;101324.88;5067693;27;97193;-73
2021/07/01 10:04:08;;;;;;;1.38;1.27;;;16.30;90.30;;;19.21;78.28;101324.88;5069102;27;96809;-75
2021/07/01 10:07:09;;;;;;;0.35;0.35;;;16.30;90.40;;;19.20;78.69;101326.03;5074245;27;96812;-74
2021/07/01 10:09:54;;;;;;;3.70;2.15;;;16.30;90.40;;;19.29;78.10;101322.03;5063892;27;96803;-75
2021/07/01 10:12:48;;;;;;;5.30;2.15;;;16.30;90.40;;;19.27;78.84;101320.81;5081996;27;96781;-75
2021/07/01 10:15:37;;;;;;;4.50;0.93;;;16.40;90.40;;;19.38;78.14;101319.19;5056045;27;96761;-75
2021/07/01 10:18:21;;;;;;;1.05;1.02;;;16.40;90.70;;;19.42;78.26;101330.94;5061535;27;97532;-75
2021/07/01 10:21:16;;;;;;;1.63;1.25;;;16.50;90.40;;;19.53;78.31;101326.59;5060319;27;97207;-74
2021/07/01 10:24:13;;;;;;;1.00;1.00;;;16.50;90.40;;;19.53;78.74;101332.03;5046776;27;96842;-74
2021/07/01 10:26:56;;;;;;;1.95;1.65;;;16.60;90.40;;;19.61;78.14;101322.94;5043967;27;96573;-74
2021/07/01 10:29:40;;;;;;;12.63;1.38;;;16.60;90.40;;;19.73;78.01;101314.72;5107018;27;96684;-75
2021/07/01 10:32:38;;;;;;;1.95;0.70;;;16.70;90.40;;;19.91;78.05;101332.28;5062145;27;97055;-74
2021/07/01 10:35:29;;;;;;;0.98;0.98;;;16.80;90.40;;;20.08;76.88;101331.97;5081313;27;97179;-74
2021/07/01 10:38:13;;;;;;;0.30;0.30;;;16.80;90.40;;;20.25;77.46;101326.19;5068365;27;96848;-74
2021/07/01 10:40:58;;;;;;;2.83;1.58;;;17.00;90.30;;;20.40;76.85;101328.91;5110165;27;96660;-74
2021/07/01 10:43:43;;;;;;;3.40;1.60;;;17.10;90.30;;;20.61;76.14;101330.19;5142274;27;96771;-74
2021/07/01 10:46:38;;;;;;;1.58;1.48;;;17.30;90.20;;;20.99;75.75;101327.56;5110645;27;96908;-74
2021/07/01 10:49:35;;;;;;;1.33;1.00;;;17.40;90.10;;;21.12;75.86;101328.22;5045337;27;96854;-74
2021/07/01 10:52:17;;;;;;;0.95;0.80;;;17.60;90.00;;;21.21;75.00;101326.88;5037472;27;96738;-74
2021/07/01 10:55:00;;;;;;;5.43;1.13;;;17.70;89.90;;;21.26;75.17;101331.28;5047441;27;96567;-74
2021/07/01 10:58:07;;;;;;;0.88;0.65;;;17.80;90.00;;;21.29;75.59;101333.28;5086992;27;99749;-74
2021/07/01 11:00:50;;;;;;;0.90;0.90;;;17.90;90.00;;;21.33;76.06;101325.97;5057041;27;96870;-74
2021/07/01 11:04:06;;;;;;;1.77;0.77;;;18.00;90.00;;;21.41;75.76;101336.66;5044941;27;96777;-74
2021/07/01 11:07:00;;;;;;;6.43;1.88;;;18.00;90.00;;;21.36;75.63;101338.88;5065681;27;97489;-74
2021/07/01 11:09:53;;;;;;;3.08;1.60;;;18.00;90.00;;;21.33;76.32;101340.41;5054183;27;96631;-74
2021/07/01 11:12:44;;;;;;;3.83;1.98;;;18.10;90.10;;;21.54;75.88;101346.25;5048158;27;96757;-74
2021/07/01 11:15:30;;;;;;;5.05;2.10;;;18.10;90.10;;;21.71;75.96;101337.66;5070165;27;97986;-74
2021/07/01 11:18:11;;;;;;;1.88;1.13;;;18.30;90.00;;;21.83;75.49;101331.25;5074978;27;96404;-74
2021/07/01 11:21:18;;;;;;;2.30;2.10;;;18.40;90.00;;;22.14;74.41;101334.53;5058442;27;97091;-74
2021/07/01 11:24:17;;;;;;;5.32;2.25;;;18.50;89.70;;;22.47;73.79;101340.19;5104093;27;96646;-75
2021/07/01 11:37:37;;;;;;;0.75;0.55;;;18.70;89.40;;;22.69;74.67;101331.16;6165402;22;1296531;-83
2021/07/01 11:40:26;;;;;;;1.35;1.25;;;19.20;89.60;;;22.78;74.40;101345.34;5137503;27;96604;-74
2021/07/01 11:43:09;;;;;;;1.88;1.77;;;19.20;89.60;;;22.64;75.08;101336.94;5041578;27;96508;-75
2021/07/01 11:45:53;;;;;;;0.70;0.70;;;19.30;89.30;;;22.44;75.84;101349.09;5141311;27;96576;-74
2021/07/01 11:48:37;;;;;;;0.40;0.40;;;19.20;89.80;;;22.35;76.44;101343.09;5075992;27;96738;-74
2021/07/01 11:51:21;;;;;;;1.02;1.00;;;19.20;90.00;;;22.32;76.83;101347.31;5158145;27;96621;-74